createdAt,value
2018-04-19T00:02:29.703Z,39
2018-04-19T00:11:34.447Z,39
2018-04-19T00:31:28.187Z,39
2018-04-19T00:41:35.331Z,39
2018-04-19T00:51:34.508Z,40
2018-04-19T01:01:28.286Z,40
2018-04-19T01:11:27.865Z,40
2018-04-19T01:21:27.783Z,40
2018-04-19T01:31:28.844Z,40
2018-04-19T01:41:28.574Z,41
2018-04-19T01:51:28.103Z,40
2018-04-19T02:01:27.666Z,41
2018-04-19T02:11:28.573Z,40
2018-04-19T02:21:27.585Z,41
2018-04-19T02:31:28.051Z,40
2018-04-19T02:41:27.587Z,40
2018-04-19T02:51:27.768Z,41
2018-04-19T03:01:30.907Z,40
2018-04-19T03:11:27.460Z,40
2018-04-19T03:21:28.902Z,40
2018-04-19T03:31:29.124Z,40
2018-04-19T03:41:27.572Z,40
2018-04-19T03:51:28.129Z,41
2018-04-19T04:01:28.124Z,41
2018-04-19T04:11:27.876Z,42
2018-04-19T04:21:28.421Z,41
2018-04-19T04:31:29.709Z,40
2018-04-19T04:41:28.210Z,40
2018-04-19T04:51:28.481Z,40
2018-04-19T05:01:28.336Z,41
2018-04-19T05:11:28.780Z,40
2018-04-19T05:21:27.552Z,40
2018-04-19T05:31:29.456Z,40
2018-04-19T05:41:27.999Z,40
2018-04-19T05:51:27.867Z,41
2018-04-19T06:01:27.413Z,40
2018-04-19T06:11:29.131Z,40
2018-04-19T06:21:27.901Z,40
2018-04-19T06:31:27.847Z,40
2018-04-19T06:41:27.841Z,40
2018-04-19T06:51:28.019Z,40
2018-04-19T07:01:27.904Z,40
2018-04-19T07:11:28.549Z,39
2018-04-19T07:21:27.452Z,39
2018-04-19T07:31:29.051Z,38
2018-04-19T07:41:28.347Z,38
2018-04-19T07:51:30.197Z,38
2018-04-19T08:01:27.945Z,38
2018-04-19T08:11:29.121Z,38
2018-04-19T08:21:27.924Z,38
2018-04-19T08:31:28.645Z,39
2018-04-19T08:41:28.643Z,39
2018-04-19T08:51:29.139Z,37
2018-04-19T09:01:27.794Z,37
2018-04-19T09:11:28.563Z,37
2018-04-19T09:21:29.616Z,37
2018-04-19T09:31:28.294Z,37
2018-04-19T09:41:28.158Z,38
2018-04-19T09:51:27.020Z,38
2018-04-19T10:01:29.368Z,36
2018-04-19T10:11:27.484Z,37
2018-04-19T10:21:30.639Z,37
2018-04-19T10:31:28.894Z,36
2018-04-19T10:41:27.574Z,36
2018-04-19T10:51:27.937Z,37
2018-04-19T11:01:27.035Z,37
2018-04-19T11:11:27.110Z,37
2018-04-19T11:21:27.357Z,37
2018-04-19T11:31:28.198Z,36
2018-04-19T11:41:31.986Z,36
2018-04-19T11:51:28.385Z,36
2018-04-19T12:01:27.280Z,36
2018-04-19T12:11:28.754Z,35
2018-04-19T12:21:27.287Z,35
2018-04-19T12:31:27.891Z,35
2018-04-19T12:41:26.706Z,35
2018-04-19T12:51:28.268Z,35
2018-04-19T13:01:27.870Z,35
2018-04-19T13:11:27.941Z,36
2018-04-19T13:21:28.098Z,35
2018-04-19T13:31:27.225Z,36
2018-04-19T13:41:27.018Z,35
2018-04-19T13:51:27.018Z,36
2018-04-19T14:01:27.092Z,36
2018-04-19T14:11:28.876Z,35
2018-04-19T14:21:27.196Z,36
2018-04-19T14:31:27.017Z,35
2018-04-19T14:41:27.669Z,35
2018-04-19T14:51:29.407Z,35
2018-04-19T15:01:27.772Z,35
2018-04-19T15:11:30.277Z,35
2018-04-19T15:21:27.884Z,35
2018-04-19T15:31:27.714Z,35
2018-04-19T15:41:29.012Z,34
2018-04-19T15:51:26.838Z,34
2018-04-19T16:01:28.599Z,34
2018-04-19T16:11:27.683Z,34
2018-04-19T16:21:27.792Z,35
2018-04-19T16:31:27.617Z,35
2018-04-19T16:41:28.505Z,35
2018-04-19T16:51:27.516Z,35
2018-04-19T17:01:27.651Z,35
2018-04-19T17:11:27.493Z,35
2018-04-19T17:21:28.656Z,36
2018-04-19T17:31:29.451Z,36
2018-04-19T17:41:29.478Z,36
2018-04-19T17:51:29.435Z,36
2018-04-19T18:01:28.089Z,36
2018-04-19T18:11:30.469Z,36
2018-04-19T18:21:28.452Z,36
2018-04-19T18:31:28.216Z,37
2018-04-19T18:41:28.132Z,36
2018-04-19T18:51:28.437Z,37
2018-04-19T19:01:28.360Z,38
2018-04-19T19:11:29.479Z,37
2018-04-19T19:21:30.652Z,37
2018-04-19T19:31:28.033Z,37
2018-04-19T19:41:27.832Z,37
2018-04-19T19:51:27.720Z,37
2018-04-19T20:01:35.701Z,37
2018-04-19T20:11:34.217Z,38
2018-04-19T20:21:42.517Z,37
2018-04-19T20:31:30.968Z,37
2018-04-19T20:41:28.292Z,37
2018-04-19T20:51:29.824Z,37
2018-04-19T21:01:32.992Z,38
2018-04-19T21:11:39.920Z,38
2018-04-19T21:21:30.668Z,38
2018-04-19T21:31:29.099Z,37
2018-04-19T21:41:29.587Z,37
2018-04-19T21:51:29.051Z,37
2018-04-19T22:01:33.130Z,37
2018-04-19T22:11:29.019Z,38
2018-04-19T22:21:27.404Z,37
2018-04-19T22:31:28.504Z,38
2018-04-19T22:41:28.943Z,37
2018-04-19T22:51:28.739Z,39
2018-04-19T23:01:28.401Z,38
2018-04-19T23:11:28.425Z,38
2018-04-19T23:21:34.007Z,38
2018-04-19T23:31:29.876Z,38
2018-04-19T23:41:33.146Z,38
2018-04-19T23:51:27.846Z,39
